Time;durP1;ratioP1;P1;durP2;ratioP2;P2;SDS_P1;SDS_P2;PMS_P1;PMS_P2;Temp;Humidity;BMP_temperature;BMP_pressure;BME280_temperature;BME280_humidity;BME280_pressure;Samples;Min_cycle;Max_cycle;Signal;HPM_P1;HPM_P2
2022/09/18 00:01:24;;;;;;;1.80;1.30;;;;;;;;;;5037419;28;24476;-45
2022/09/18 00:03:50;;;;;;;1.75;1.30;;;;;;;;;;5039947;28;25246;-46
2022/09/18 00:06:26;;;;;;;1.60;1.30;;;;;;;;;;5042041;28;24433;-45
2022/09/18 00:08:56;;;;;;;1.20;1.10;;;;;;;;;;5031276;28;24527;-45
2022/09/18 00:11:22;;;;;;;1.40;1.30;;;;;;;;;;5039791;28;24992;-45
2022/09/18 00:13:48;;;;;;;1.60;1.48;;;;;;;;;;5044189;28;24427;-45
2022/09/18 00:16:14;;;;;;;2.27;1.30;;;;;;;;;;5041356;28;24465;-44
2022/09/18 00:18:40;;;;;;;1.50;1.20;;;;;;;;;;5041514;28;24451;-45
2022/09/18 00:21:06;;;;;;;1.97;1.43;;;;;;;;;;5041515;28;24427;-45
2022/09/18 00:23:31;;;;;;;1.70;1.35;;;;;;;;;;5040088;28;25007;-45
2022/09/18 00:25:56;;;;;;;1.30;1.20;;;;;;;;;;5028799;28;24443;-44
2022/09/18 00:28:21;;;;;;;2.10;1.30;;;;;;;;;;5044372;28;24435;-45
2022/09/18 00:30:47;;;;;;;1.30;1.20;;;;;;;;;;5042926;28;25091;-45
2022/09/18 00:33:12;;;;;;;1.40;1.30;;;;;;;;;;5037735;28;24415;-45
2022/09/18 00:35:40;;;;;;;1.60;1.50;;;;;;;;;;5040341;28;24466;-44
2022/09/18 00:38:05;;;;;;;2.63;1.20;;;;;;;;;;5037679;28;24434;-45
2022/09/18 00:40:32;;;;;;;1.45;1.35;;;;;;;;;;5040591;28;21259;-45
2022/09/18 00:42:58;;;;;;;1.73;1.40;;;;;;;;;;5033842;28;24426;-44
2022/09/18 00:45:23;;;;;;;1.98;1.60;;;;;;;;;;5034590;28;24420;-45
2022/09/18 00:47:49;;;;;;;2.40;1.60;;;;;;;;;;5035905;28;24458;-45
2022/09/18 00:50:22;;;;;;;2.05;1.95;;;;;;;;;;5032544;28;24412;-45
2022/09/18 00:52:50;;;;;;;2.40;2.20;;;;;;;;;;5041937;28;24441;-46
2022/09/18 00:55:17;;;;;;;2.75;2.45;;;;;;;;;;5034448;28;24513;-45
2022/09/18 00:57:47;;;;;;;2.92;2.60;;;;;;;;;;5032488;28;25013;-45
2022/09/18 01:00:13;;;;;;;2.80;2.60;;;;;;;;;;5035796;28;25502;-45
2022/09/18 01:02:40;;;;;;;3.05;2.75;;;;;;;;;;5036667;28;24481;-44
2022/09/18 01:05:05;;;;;;;3.30;3.00;;;;;;;;;;5037402;28;24408;-45
2022/09/18 01:07:48;;;;;;;3.33;3.03;;;;;;;;;;5043684;28;24427;-46
2022/09/18 01:10:20;;;;;;;3.22;2.92;;;;;;;;;;5037095;28;24423;-45
2022/09/18 01:12:48;;;;;;;4.00;3.25;;;;;;;;;;5045514;28;24983;-46
2022/09/18 01:15:38;;;;;;;3.45;3.25;;;;;;;;;;5045127;28;24419;-46
2022/09/18 01:18:07;;;;;;;3.85;3.30;;;;;;;;;;5039499;28;24991;-45
2022/09/18 01:20:35;;;;;;;3.67;3.17;;;;;;;;;;5037737;28;24526;-45
2022/09/18 01:23:12;;;;;;;3.20;2.90;;;;;;;;;;5045864;28;24458;-45
2022/09/18 01:25:50;;;;;;;3.73;2.90;;;;;;;;;;5044331;28;25028;-45
2022/09/18 01:28:20;;;;;;;4.00;3.30;;;;;;;;;;5036220;28;24551;-45
2022/09/18 01:30:46;;;;;;;3.28;2.88;;;;;;;;;;5045983;28;24446;-44
2022/09/18 01:33:17;;;;;;;3.97;3.00;;;;;;;;;;5048203;28;24485;-44
2022/09/18 01:35:44;;;;;;;3.90;2.80;;;;;;;;;;5044951;28;24515;-45
2022/09/18 01:38:22;;;;;;;2.70;2.35;;;;;;;;;;5046208;28;24435;-45
2022/09/18 01:41:06;;;;;;;3.42;2.60;;;;;;;;;;5041959;28;25033;-45
2022/09/18 01:43:31;;;;;;;2.90;2.40;;;;;;;;;;5033806;28;24431;-45
2022/09/18 01:45:59;;;;;;;3.47;2.40;;;;;;;;;;5042396;28;24454;-45
2022/09/18 01:48:29;;;;;;;2.75;2.47;;;;;;;;;;5044027;28;24442;-45
2022/09/18 01:50:58;;;;;;;2.40;2.20;;;;;;;;;;5041686;28;24426;-46
2022/09/18 01:53:27;;;;;;;2.60;2.40;;;;;;;;;;5046674;28;24422;-45
2022/09/18 01:55:55;;;;;;;2.20;2.00;;;;;;;;;;5044721;28;24484;-45
2022/09/18 01:58:21;;;;;;;3.10;2.10;;;;;;;;;;5043753;28;24518;-45
2022/09/18 02:00:49;;;;;;;2.30;1.90;;;;;;;;;;5040472;28;24431;-46
2022/09/18 02:03:18;;;;;;;2.50;1.90;;;;;;;;;;5039182;28;24430;-45
2022/09/18 02:06:02;;;;;;;2.50;2.30;;;;;;;;;;5033583;28;24814;-45
2022/09/18 02:08:32;;;;;;;2.13;2.00;;;;;;;;;;5042892;28;24593;-45
2022/09/18 02:11:05;;;;;;;2.40;2.00;;;;;;;;;;5038953;28;24427;-46
2022/09/18 02:13:34;;;;;;;2.45;2.25;;;;;;;;;;5033936;28;24416;-45
2022/09/18 02:16:01;;;;;;;2.60;2.40;;;;;;;;;;5041946;28;24430;-46
2022/09/18 02:18:28;;;;;;;2.20;2.10;;;;;;;;;;5033209;28;24778;-45
2022/09/18 02:20:54;;;;;;;2.45;2.20;;;;;;;;;;5037431;28;24424;-44
2022/09/18 02:23:19;;;;;;;3.20;2.10;;;;;;;;;;5044793;28;25057;-46
2022/09/18 02:25:48;;;;;;;2.67;2.20;;;;;;;;;;5040554;28;24527;-45
2022/09/18 02:28:15;;;;;;;2.20;2.10;;;;;;;;;;5037724;28;25022;-46
2022/09/18 02:30:41;;;;;;;1.90;1.80;;;;;;;;;;5036666;28;24592;-45
2022/09/18 02:33:41;;;;;;;2.00;1.90;;;;;;;;;;5040105;28;24506;-46
2022/09/18 02:36:18;;;;;;;2.00;1.80;;;;;;;;;;5043075;28;24439;-46
2022/09/18 02:38:48;;;;;;;2.30;2.10;;;;;;;;;;5038086;28;24969;-45
2022/09/18 02:41:20;;;;;;;2.40;2.20;;;;;;;;;;5044970;28;24473;-46
2022/09/18 02:44:00;;;;;;;2.03;1.83;;;;;;;;;;5037491;28;24489;-46
2022/09/18 02:46:34;;;;;;;2.90;2.17;;;;;;;;;;5037813;28;24874;-45
2022/09/18 02:49:18;;;;;;;2.55;2.35;;;;;;;;;;5043077;28;24546;-45
2022/09/18 02:51:59;;;;;;;2.40;2.20;;;;;;;;;;5044385;28;24419;-44
2022/09/18 02:54:26;;;;;;;2.30;2.20;;;;;;;;;;5038629;28;25333;-43
2022/09/18 02:56:56;;;;;;;2.20;2.10;;;;;;;;;;5041305;28;25275;-44
2022/09/18 02:59:26;;;;;;;2.65;2.45;;;;;;;;;;5038779;28;24566;-44
2022/09/18 03:01:52;;;;;;;3.53;2.80;;;;;;;;;;5043535;28;25025;-44
2022/09/18 03:04:21;;;;;;;3.07;2.80;;;;;;;;;;5040663;28;24423;-45
2022/09/18 03:06:46;;;;;;;3.63;3.30;;;;;;;;;;5040936;28;24430;-45
2022/09/18 03:09:12;;;;;;;4.30;3.53;;;;;;;;;;5027432;28;24802;-45
2022/09/18 03:11:37;;;;;;;4.85;4.32;;;;;;;;;;5030678;28;24764;-45
2022/09/18 03:14:02;;;;;;;6.20;5.13;;;;;;;;;;5053473;28;24473;-45
2022/09/18 03:16:27;;;;;;;6.55;5.10;;;;;;;;;;5046747;28;24565;-45
2022/09/18 03:18:53;;;;;;;6.10;5.23;;;;;;;;;;5040345;28;24466;-45
2022/09/18 03:21:18;;;;;;;6.13;5.30;;;;;;;;;;5042170;28;24540;-46
2022/09/18 03:23:43;;;;;;;8.32;5.30;;;;;;;;;;5039204;28;24428;-46
2022/09/18 03:26:08;;;;;;;5.80;5.30;;;;;;;;;;5040948;28;24419;-45
2022/09/18 03:28:33;;;;;;;8.20;6.27;;;;;;;;;;5038693;28;24435;-46
2022/09/18 03:30:58;;;;;;;6.70;5.80;;;;;;;;;;5038756;28;24418;-45
2022/09/18 03:33:24;;;;;;;6.13;5.40;;;;;;;;;;5043418;28;24981;-45
2022/09/18 03:35:49;;;;;;;6.20;5.60;;;;;;;;;;5042258;28;24794;-45
2022/09/18 03:38:14;;;;;;;6.45;5.85;;;;;;;;;;5042545;28;24932;-45
2022/09/18 03:40:43;;;;;;;6.07;5.22;;;;;;;;;;5037732;28;24434;-45
2022/09/18 03:43:08;;;;;;;6.90;5.53;;;;;;;;;;5041343;28;24423;-45
2022/09/18 03:45:33;;;;;;;7.77;6.10;;;;;;;;;;5040591;28;24431;-45
2022/09/18 03:47:58;;;;;;;6.57;5.27;;;;;;;;;;5031837;28;24485;-45
2022/09/18 03:50:23;;;;;;;6.20;5.60;;;;;;;;;;5040969;28;25082;-46
2022/09/18 03:52:48;;;;;;;6.13;5.55;;;;;;;;;;5041697;28;24426;-46
2022/09/18 03:55:14;;;;;;;7.53;5.50;;;;;;;;;;5044452;28;24429;-45
2022/09/18 03:57:39;;;;;;;6.57;5.30;;;;;;;;;;5044333;28;24996;-45
2022/09/18 04:00:04;;;;;;;7.25;5.80;;;;;;;;;;5040460;28;24426;-45
2022/09/18 04:02:30;;;;;;;7.30;5.25;;;;;;;;;;5039792;28;24538;-45
2022/09/18 04:04:55;;;;;;;6.97;4.80;;;;;;;;;;5032188;28;24415;-46
2022/09/18 04:07:20;;;;;;;6.82;4.30;;;;;;;;;;5030666;28;24447;-45
2022/09/18 04:09:46;;;;;;;5.47;4.10;;;;;;;;;;5038660;28;24913;-46
2022/09/18 04:12:11;;;;;;;6.13;3.90;;;;;;;;;;5031761;28;24516;-46
2022/09/18 04:14:36;;;;;;;5.35;3.70;;;;;;;;;;5035764;28;24474;-45
2022/09/18 04:17:01;;;;;;;7.50;4.20;;;;;;;;;;5039097;28;24466;-45
2022/09/18 04:19:26;;;;;;;7.05;3.92;;;;;;;;;;5042940;28;24538;-45
2022/09/18 04:21:51;;;;;;;5.80;3.70;;;;;;;;;;5038683;28;24497;-45
2022/09/18 04:24:17;;;;;;;8.73;3.57;;;;;;;;;;5042523;28;24415;-45
2022/09/18 04:26:42;;;;;;;5.68;3.38;;;;;;;;;;5037473;28;24419;-45
2022/09/18 04:29:07;;;;;;;6.60;4.00;;;;;;;;;;5033532;28;24466;-45
2022/09/18 04:31:32;;;;;;;7.10;3.60;;;;;;;;;;5036642;28;24422;-45
2022/09/18 04:33:57;;;;;;;4.70;3.20;;;;;;;;;;5037582;28;24421;-46
2022/09/18 04:36:23;;;;;;;4.23;3.00;;;;;;;;;;5041647;28;24493;-46
2022/09/18 04:38:48;;;;;;;5.38;3.40;;;;;;;;;;5036815;28;24521;-46
2022/09/18 04:41:13;;;;;;;9.07;3.58;;;;;;;;;;5034191;28;24431;-47
2022/09/18 04:43:38;;;;;;;7.22;3.53;;;;;;;;;;5037260;28;25012;-45
2022/09/18 04:46:03;;;;;;;6.00;3.30;;;;;;;;;;5035802;28;24420;-45
2022/09/18 04:48:28;;;;;;;7.30;3.30;;;;;;;;;;5026479;28;24438;-45
2022/09/18 04:50:54;;;;;;;6.32;3.10;;;;;;;;;;5033179;28;24424;-45
2022/09/18 04:53:19;;;;;;;5.17;2.70;;;;;;;;;;5031604;28;24416;-45
2022/09/18 04:55:44;;;;;;;5.93;3.30;;;;;;;;;;5034067;28;25066;-45
2022/09/18 04:58:10;;;;;;;5.88;3.30;;;;;;;;;;5042659;28;24419;-45
2022/09/18 05:00:37;;;;;;;6.32;3.30;;;;;;;;;;5035155;28;24821;-45
2022/09/18 05:03:02;;;;;;;5.70;3.30;;;;;;;;;;5045538;28;24438;-46
2022/09/18 05:05:27;;;;;;;5.70;3.17;;;;;;;;;;5040740;28;24433;-45
2022/09/18 05:07:53;;;;;;;5.05;3.22;;;;;;;;;;5039503;28;24436;-45
2022/09/18 05:10:18;;;;;;;7.43;2.90;;;;;;;;;;5040019;28;24806;-45
2022/09/18 05:12:44;;;;;;;5.77;2.70;;;;;;;;;;5038884;28;25039;-45
2022/09/18 05:15:09;;;;;;;3.97;2.80;;;;;;;;;;5043223;28;24426;-45
2022/09/18 05:17:34;;;;;;;4.87;3.00;;;;;;;;;;5038112;28;24427;-45
2022/09/18 05:20:00;;;;;;;5.65;3.17;;;;;;;;;;5038992;28;24463;-44
2022/09/18 05:22:25;;;;;;;5.27;2.90;;;;;;;;;;5034341;28;24419;-45
2022/09/18 05:24:50;;;;;;;5.40;2.70;;;;;;;;;;5037279;28;24549;-45
2022/09/18 05:27:15;;;;;;;3.70;2.58;;;;;;;;;;5052606;28;24848;-45
2022/09/18 05:29:40;;;;;;;5.20;2.50;;;;;;;;;;5043965;28;24427;-45
2022/09/18 05:32:06;;;;;;;4.97;2.70;;;;;;;;;;5040072;28;24423;-45
2022/09/18 05:34:31;;;;;;;4.57;2.97;;;;;;;;;;5035080;28;24578;-46
2022/09/18 05:36:56;;;;;;;4.40;2.57;;;;;;;;;;5033105;28;24448;-44
2022/09/18 05:39:21;;;;;;;5.47;2.70;;;;;;;;;;5040018;28;24948;-45
2022/09/18 05:41:48;;;;;;;5.70;2.50;;;;;;;;;;5026676;28;24459;-46
2022/09/18 05:44:13;;;;;;;3.80;2.60;;;;;;;;;;5032200;28;25004;-45
2022/09/18 05:46:38;;;;;;;5.80;2.70;;;;;;;;;;5034684;28;24428;-46
2022/09/18 05:49:05;;;;;;;4.65;2.20;;;;;;;;;;5032279;28;25067;-46
2022/09/18 05:51:30;;;;;;;6.57;2.60;;;;;;;;;;5037027;28;24411;-46
2022/09/18 05:53:55;;;;;;;5.53;2.80;;;;;;;;;;5031858;28;24431;-46
2022/09/18 05:56:20;;;;;;;3.03;2.30;;;;;;;;;;5036203;28;24409;-46
2022/09/18 05:58:46;;;;;;;6.15;2.22;;;;;;;;;;5033895;28;24547;-46
2022/09/18 06:01:13;;;;;;;4.50;2.40;;;;;;;;;;5036170;28;24492;-46
2022/09/18 06:03:38;;;;;;;5.35;2.35;;;;;;;;;;5037630;28;24442;-46
2022/09/18 06:06:03;;;;;;;3.40;2.10;;;;;;;;;;5043160;28;24419;-46
2022/09/18 06:08:28;;;;;;;4.73;2.60;;;;;;;;;;5031448;28;24481;-46
2022/09/18 06:10:53;;;;;;;6.60;3.08;;;;;;;;;;5036721;28;24412;-46
2022/09/18 06:13:19;;;;;;;4.82;2.60;;;;;;;;;;5043269;28;24431;-45
2022/09/18 06:15:48;;;;;;;3.40;2.10;;;;;;;;;;5044576;28;24952;-46
2022/09/18 06:18:13;;;;;;;4.90;2.50;;;;;;;;;;5031384;28;24442;-46
2022/09/18 06:20:42;;;;;;;3.67;2.35;;;;;;;;;;5045378;28;24427;-46
2022/09/18 06:23:07;;;;;;;5.10;2.60;;;;;;;;;;5033707;28;24430;-46
2022/09/18 06:25:33;;;;;;;5.00;2.30;;;;;;;;;;5037743;28;24424;-47
2022/09/18 06:27:59;;;;;;;4.60;2.50;;;;;;;;;;5029708;28;24522;-45
2022/09/18 06:30:28;;;;;;;3.70;2.30;;;;;;;;;;5033107;28;24511;-46
2022/09/18 06:32:53;;;;;;;2.97;2.20;;;;;;;;;;5034109;28;24419;-46
2022/09/18 06:35:18;;;;;;;2.80;2.10;;;;;;;;;;5032392;28;24443;-46
2022/09/18 06:37:43;;;;;;;5.53;2.80;;;;;;;;;;5033802;28;24415;-45
2022/09/18 06:40:09;;;;;;;4.13;2.30;;;;;;;;;;5049523;28;24973;-46
2022/09/18 06:42:34;;;;;;;4.50;2.10;;;;;;;;;;5049843;28;24435;-46
2022/09/18 06:44:59;;;;;;;6.20;2.60;;;;;;;;;;5041164;28;24578;-46
2022/09/18 06:47:24;;;;;;;4.75;2.33;;;;;;;;;;5046808;28;24597;-46
2022/09/18 06:49:49;;;;;;;4.88;2.70;;;;;;;;;;5049941;28;24411;-46
2022/09/18 06:52:14;;;;;;;5.88;2.60;;;;;;;;;;5044291;28;24964;-45
2022/09/18 06:54:39;;;;;;;4.43;2.90;;;;;;;;;;5041375;28;24554;-45
2022/09/18 06:57:05;;;;;;;3.13;2.30;;;;;;;;;;5029344;28;24389;-45
2022/09/18 06:59:30;;;;;;;4.10;2.40;;;;;;;;;;5031076;28;24977;-46
2022/09/18 07:01:55;;;;;;;5.18;2.40;;;;;;;;;;5044693;28;24438;-46
2022/09/18 07:04:20;;;;;;;5.57;2.30;;;;;;;;;;5033597;28;25092;-45
2022/09/18 07:06:46;;;;;;;2.80;2.10;;;;;;;;;;5031043;28;24466;-46
2022/09/18 07:09:11;;;;;;;5.40;2.30;;;;;;;;;;5042024;28;24431;-46
2022/09/18 07:11:36;;;;;;;4.40;2.23;;;;;;;;;;5034101;28;24430;-45
2022/09/18 07:14:04;;;;;;;3.97;1.70;;;;;;;;;;5042937;28;24948;-46
2022/09/18 07:16:29;;;;;;;4.85;2.20;;;;;;;;;;5043257;28;24625;-45
2022/09/18 07:18:54;;;;;;;5.10;2.50;;;;;;;;;;5039345;28;24630;-46
2022/09/18 07:21:19;;;;;;;5.07;2.30;;;;;;;;;;5035237;28;24422;-45
2022/09/18 07:23:44;;;;;;;6.77;2.40;;;;;;;;;;5040397;28;25315;-46
2022/09/18 07:26:10;;;;;;;5.03;2.10;;;;;;;;;;5025627;28;24945;-46
2022/09/18 07:28:35;;;;;;;4.25;2.50;;;;;;;;;;5040986;28;24445;-46
2022/09/18 07:31:01;;;;;;;2.35;1.90;;;;;;;;;;5040676;28;24979;-45
2022/09/18 07:33:27;;;;;;;4.18;2.58;;;;;;;;;;5038448;28;24427;-47
2022/09/18 07:35:52;;;;;;;4.50;2.80;;;;;;;;;;5027328;28;24535;-47
2022/09/18 07:38:17;;;;;;;4.40;2.40;;;;;;;;;;5027628;28;24582;-46
2022/09/18 07:40:44;;;;;;;3.33;2.40;;;;;;;;;;5027520;28;24392;-46
2022/09/18 07:43:10;;;;;;;3.15;2.60;;;;;;;;;;5028114;28;24532;-45
2022/09/18 07:45:35;;;;;;;4.28;2.20;;;;;;;;;;5029457;28;25076;-46
2022/09/18 07:48:04;;;;;;;3.22;2.50;;;;;;;;;;5043502;28;24423;-47
2022/09/18 07:50:30;;;;;;;4.10;2.33;;;;;;;;;;5047217;28;24458;-46
2022/09/18 07:52:56;;;;;;;3.60;2.30;;;;;;;;;;5046915;28;25155;-47
2022/09/18 07:55:23;;;;;;;4.38;2.50;;;;;;;;;;5047657;28;24930;-60
2022/09/18 07:57:52;;;;;;;5.32;2.80;;;;;;;;;;5031083;28;24802;-45
2022/09/18 08:00:17;;;;;;;4.70;2.70;;;;;;;;;;5027191;28;24450;-46
2022/09/18 08:02:42;;;;;;;4.40;2.50;;;;;;;;;;5036044;28;24420;-46
2022/09/18 08:05:08;;;;;;;5.30;2.60;;;;;;;;;;5038619;28;24424;-46
2022/09/18 08:07:33;;;;;;;5.67;2.30;;;;;;;;;;5032170;28;24494;-46
2022/09/18 08:09:58;;;;;;;4.05;2.45;;;;;;;;;;5027159;28;24450;-45
2022/09/18 08:12:23;;;;;;;3.65;2.40;;;;;;;;;;5027245;28;24821;-47
2022/09/18 08:14:48;;;;;;;3.42;2.70;;;;;;;;;;5027080;28;24420;-47
2022/09/18 08:17:14;;;;;;;3.50;2.23;;;;;;;;;;5028025;28;24918;-47
2022/09/18 08:19:39;;;;;;;3.33;2.13;;;;;;;;;;5044349;28;24821;-46
2022/09/18 08:22:04;;;;;;;2.90;2.10;;;;;;;;;;5046773;28;24711;-46
2022/09/18 08:24:29;;;;;;;3.28;2.50;;;;;;;;;;5046855;28;24407;-45
2022/09/18 08:27:01;;;;;;;4.75;2.40;;;;;;;;;;5046597;28;24464;-46
2022/09/18 08:29:27;;;;;;;3.92;2.20;;;;;;;;;;5042339;28;24830;-46
2022/09/18 08:31:52;;;;;;;4.00;2.17;;;;;;;;;;5026931;28;24416;-45
2022/09/18 08:34:17;;;;;;;3.20;1.98;;;;;;;;;;5027014;28;24396;-46
2022/09/18 08:36:42;;;;;;;4.10;2.20;;;;;;;;;;5041262;28;24434;-46
2022/09/18 08:39:07;;;;;;;3.22;2.15;;;;;;;;;;5046620;28;25203;-45
2022/09/18 08:41:39;;;;;;;3.30;2.10;;;;;;;;;;5044858;28;24446;-46
2022/09/18 08:44:08;;;;;;;3.60;1.90;;;;;;;;;;5046029;28;24912;-49
2022/09/18 08:46:47;;;;;;;3.20;2.10;;;;;;;;;;5044372;28;24427;-46
2022/09/18 08:49:31;;;;;;;5.45;2.60;;;;;;;;;;5043685;28;24462;-47
2022/09/18 08:51:59;;;;;;;4.10;2.33;;;;;;;;;;5046227;28;24414;-46
2022/09/18 08:54:32;;;;;;;2.15;1.60;;;;;;;;;;5046200;28;24905;-46
2022/09/18 08:57:01;;;;;;;4.78;2.10;;;;;;;;;;5043704;28;24976;-45
2022/09/18 08:59:36;;;;;;;3.17;1.92;;;;;;;;;;5046209;28;24400;-45
2022/09/18 09:02:18;;;;;;;5.18;2.33;;;;;;;;;;5046114;28;24940;-45
2022/09/18 09:04:43;;;;;;;5.22;2.20;;;;;;;;;;5046696;28;24395;-45
2022/09/18 09:07:08;;;;;;;3.67;1.80;;;;;;;;;;5043294;28;24509;-46
2022/09/18 09:10:00;;;;;;;4.60;2.20;;;;;;;;;;5045892;28;24414;-47
2022/09/18 09:12:35;;;;;;;3.75;1.95;;;;;;;;;;5046233;28;24392;-47
2022/09/18 09:15:19;;;;;;;3.35;1.60;;;;;;;;;;5046074;28;24395;-45
2022/09/18 09:17:45;;;;;;;3.83;1.95;;;;;;;;;;5042963;28;24419;-46
2022/09/18 09:20:21;;;;;;;4.00;2.00;;;;;;;;;;5026146;28;24392;-45
2022/09/18 09:22:50;;;;;;;3.43;1.80;;;;;;;;;;5026259;28;24518;-45
2022/09/18 09:25:15;;;;;;;3.47;1.90;;;;;;;;;;5026194;28;24416;-46
2022/09/18 09:27:42;;;;;;;3.88;2.00;;;;;;;;;;5026323;28;24554;-45
2022/09/18 09:30:12;;;;;;;4.10;2.10;;;;;;;;;;5026259;28;24416;-46
2022/09/18 09:32:40;;;;;;;3.80;1.73;;;;;;;;;;5030044;28;25041;-47
2022/09/18 09:35:19;;;;;;;4.30;1.98;;;;;;;;;;5030059;28;24557;-43
2022/09/18 09:37:45;;;;;;;2.58;1.55;;;;;;;;;;5030112;28;24500;-45
2022/09/18 09:40:16;;;;;;;5.13;1.90;;;;;;;;;;5031570;28;24434;-45
2022/09/18 09:42:49;;;;;;;5.95;1.95;;;;;;;;;;5029778;28;24442;-45
2022/09/18 09:45:27;;;;;;;4.03;1.90;;;;;;;;;;5029812;28;24383;-46
2022/09/18 09:48:11;;;;;;;4.47;1.85;;;;;;;;;;5029633;28;25036;-45
2022/09/18 09:50:50;;;;;;;2.47;1.50;;;;;;;;;;5030217;28;24427;-46
2022/09/18 09:53:15;;;;;;;3.08;1.80;;;;;;;;;;5049560;28;24606;-46
2022/09/18 09:55:59;;;;;;;3.40;1.70;;;;;;;;;;5049719;28;25188;-45
2022/09/18 09:58:47;;;;;;;3.78;2.20;;;;;;;;;;5049292;28;24440;-46
2022/09/18 10:01:16;;;;;;;2.95;1.95;;;;;;;;;;5047477;28;24962;-46
2022/09/18 10:03:45;;;;;;;2.90;1.90;;;;;;;;;;5049234;28;24411;-46
2022/09/18 10:06:15;;;;;;;3.70;1.90;;;;;;;;;;5049368;28;24399;-46
2022/09/18 10:08:53;;;;;;;2.78;1.70;;;;;;;;;;5049386;28;24525;-48
2022/09/18 10:11:19;;;;;;;3.33;1.77;;;;;;;;;;5046575;28;24398;-46
2022/09/18 10:13:50;;;;;;;1.97;1.40;;;;;;;;;;5042475;28;24551;-46
2022/09/18 10:16:17;;;;;;;3.55;1.90;;;;;;;;;;5041567;28;24831;-46
2022/09/18 10:18:43;;;;;;;3.15;1.60;;;;;;;;;;5041083;28;24424;-45
2022/09/18 10:21:16;;;;;;;3.10;1.83;;;;;;;;;;5055118;28;24425;-45
2022/09/18 10:24:02;;;;;;;3.28;1.40;;;;;;;;;;5032050;28;24432;-44
2022/09/18 10:26:30;;;;;;;3.58;2.30;;;;;;;;;;5054888;28;24453;-44
2022/09/18 10:28:55;;;;;;;3.97;1.60;;;;;;;;;;5039533;28;24984;-45
2022/09/18 10:31:20;;;;;;;3.10;1.60;;;;;;;;;;5047416;28;24508;-46
2022/09/18 10:33:51;;;;;;;2.40;1.30;;;;;;;;;;5034234;28;24427;-45
2022/09/18 10:36:18;;;;;;;2.88;1.25;;;;;;;;;;5039735;28;24478;-46
2022/09/18 10:38:44;;;;;;;1.73;1.45;;;;;;;;;;5035646;28;24419;-45
2022/09/18 10:41:24;;;;;;;2.50;1.30;;;;;;;;;;5030841;28;24774;-45
2022/09/18 10:43:55;;;;;;;2.60;1.52;;;;;;;;;;5037026;28;24533;-46
2022/09/18 10:46:24;;;;;;;1.90;1.60;;;;;;;;;;5034105;28;24428;-45
2022/09/18 10:48:50;;;;;;;3.17;1.70;;;;;;;;;;5040386;28;24996;-47
2022/09/18 10:51:16;;;;;;;3.10;1.60;;;;;;;;;;5040142;28;24592;-45
2022/09/18 10:53:41;;;;;;;2.00;1.60;;;;;;;;;;5031411;28;24430;-47
2022/09/18 10:56:18;;;;;;;3.58;1.70;;;;;;;;;;5040742;28;24449;-46
2022/09/18 10:58:44;;;;;;;3.85;1.90;;;;;;;;;;5036504;28;24809;-46
2022/09/18 11:01:09;;;;;;;2.47;1.70;;;;;;;;;;5045295;28;24438;-46
2022/09/18 11:03:48;;;;;;;2.03;1.55;;;;;;;;;;5045486;28;24415;-46
2022/09/18 11:06:22;;;;;;;1.83;1.30;;;;;;;;;;5030035;28;24527;-46
2022/09/18 11:08:49;;;;;;;2.30;1.30;;;;;;;;;;5033878;28;24470;-46
2022/09/18 11:11:22;;;;;;;2.23;1.50;;;;;;;;;;5044320;28;24431;-46
2022/09/18 11:13:55;;;;;;;3.20;1.80;;;;;;;;;;5033793;28;25039;-46
2022/09/18 11:16:27;;;;;;;1.60;1.30;;;;;;;;;;5043270;28;24459;-46
2022/09/18 11:19:05;;;;;;;1.87;1.30;;;;;;;;;;5052542;28;24420;-47
2022/09/18 11:21:30;;;;;;;2.15;1.30;;;;;;;;;;5040458;28;24427;-46
2022/09/18 11:24:02;;;;;;;2.07;1.50;;;;;;;;;;5045852;28;24494;-47
2022/09/18 11:26:29;;;;;;;2.20;1.38;;;;;;;;;;5042788;28;24462;-47
2022/09/18 11:28:58;;;;;;;3.00;1.40;;;;;;;;;;5028860;28;24498;-46
2022/09/18 11:31:25;;;;;;;1.83;1.20;;;;;;;;;;5045452;28;24433;-46
2022/09/18 11:33:52;;;;;;;2.05;1.20;;;;;;;;;;5034044;28;24513;-44
2022/09/18 11:36:23;;;;;;;1.80;1.30;;;;;;;;;;5055185;28;24430;-46
2022/09/18 11:38:48;;;;;;;1.97;1.20;;;;;;;;;;5028949;28;24842;-45
2022/09/18 11:41:20;;;;;;;1.40;1.20;;;;;;;;;;5033516;28;24782;-45
2022/09/18 11:43:46;;;;;;;1.50;1.40;;;;;;;;;;5045369;28;24426;-46
2022/09/18 11:46:22;;;;;;;2.20;1.17;;;;;;;;;;5037012;28;24474;-46
2022/09/18 11:49:02;;;;;;;2.30;1.27;;;;;;;;;;5037808;28;24493;-46
2022/09/18 11:51:32;;;;;;;3.40;1.30;;;;;;;;;;5027493;28;24500;-46
2022/09/18 11:54:01;;;;;;;1.90;1.10;;;;;;;;;;5038878;28;25022;-47
2022/09/18 11:56:40;;;;;;;1.30;1.10;;;;;;;;;;5031950;28;24427;-46
2022/09/18 11:59:22;;;;;;;2.85;1.30;;;;;;;;;;5028628;28;24419;-46
2022/09/18 12:01:50;;;;;;;1.40;1.10;;;;;;;;;;5033799;28;24507;-46
2022/09/18 12:04:20;;;;;;;2.38;1.38;;;;;;;;;;5045052;28;24415;-46
2022/09/18 12:06:52;;;;;;;1.80;1.30;;;;;;;;;;5030232;28;24962;-46
2022/09/18 12:09:37;;;;;;;1.20;1.10;;;;;;;;;;5041527;28;24554;-46
2022/09/18 12:12:03;;;;;;;1.63;1.15;;;;;;;;;;5036213;28;25016;-46
2022/09/18 12:14:35;;;;;;;1.90;1.30;;;;;;;;;;5037880;28;24415;-47
2022/09/18 12:17:19;;;;;;;1.40;1.20;;;;;;;;;;5042208;28;24415;-46
2022/09/18 12:20:04;;;;;;;2.92;1.20;;;;;;;;;;5038905;28;24740;-46
2022/09/18 12:22:45;;;;;;;1.85;1.00;;;;;;;;;;5036661;28;24434;-46
2022/09/18 12:25:14;;;;;;;1.40;1.10;;;;;;;;;;5026045;28;24514;-46
2022/09/18 12:27:49;;;;;;;2.07;1.33;;;;;;;;;;5028185;28;24434;-46
2022/09/18 12:30:18;;;;;;;1.73;1.10;;;;;;;;;;5027562;28;24415;-46
2022/09/18 12:33:02;;;;;;;1.70;1.10;;;;;;;;;;5039548;28;24786;-46
2022/09/18 12:35:33;;;;;;;1.52;1.25;;;;;;;;;;5027897;28;24459;-47
2022/09/18 12:38:04;;;;;;;2.63;1.13;;;;;;;;;;5026985;28;24427;-47
2022/09/18 12:40:40;;;;;;;2.10;1.27;;;;;;;;;;5032747;28;24426;-48
2022/09/18 12:43:16;;;;;;;2.60;1.50;;;;;;;;;;5045364;28;25329;-46
2022/09/18 12:45:49;;;;;;;2.25;1.10;;;;;;;;;;5044473;28;24426;-45
2022/09/18 12:48:29;;;;;;;1.17;1.00;;;;;;;;;;5045098;28;24423;-45
2022/09/18 12:51:04;;;;;;;1.33;1.20;;;;;;;;;;5046340;28;24945;-45
2022/09/18 12:53:49;;;;;;;0.93;0.90;;;;;;;;;;5046182;28;24399;-45
2022/09/18 12:56:37;;;;;;;2.03;1.00;;;;;;;;;;5043885;28;24419;-45
2022/09/18 12:59:35;;;;;;;1.88;1.40;;;;;;;;;;5046117;28;24399;-46
2022/09/18 13:02:09;;;;;;;1.30;0.88;;;;;;;;;;5043995;28;25015;-45
2022/09/18 13:04:49;;;;;;;1.60;0.80;;;;;;;;;;5046439;28;25002;-45
2022/09/18 13:07:21;;;;;;;2.15;0.90;;;;;;;;;;5036285;28;24423;-45
2022/09/18 13:09:51;;;;;;;2.33;1.30;;;;;;;;;;5032913;28;24520;-46
2022/09/18 13:12:24;;;;;;;2.15;1.00;;;;;;;;;;5032721;28;24395;-45
2022/09/18 13:14:52;;;;;;;2.05;1.17;;;;;;;;;;5032933;28;24399;-45
2022/09/18 13:17:19;;;;;;;2.20;1.52;;;;;;;;;;5034295;28;24427;-45
2022/09/18 13:19:48;;;;;;;2.38;1.25;;;;;;;;;;5032757;28;24526;-46
2022/09/18 13:22:15;;;;;;;1.20;1.10;;;;;;;;;;5032673;28;24442;-46
2022/09/18 13:24:41;;;;;;;1.40;1.10;;;;;;;;;;5032198;28;24431;-46
2022/09/18 13:27:11;;;;;;;1.92;1.20;;;;;;;;;;5032787;28;24396;-45
2022/09/18 13:29:51;;;;;;;1.95;1.20;;;;;;;;;;5032603;28;24427;-46
2022/09/18 13:32:19;;;;;;;1.88;1.10;;;;;;;;;;5031741;28;24926;-46
2022/09/18 13:34:48;;;;;;;2.00;1.40;;;;;;;;;;5041902;28;24522;-47
2022/09/18 13:37:15;;;;;;;1.88;1.27;;;;;;;;;;5045515;28;24807;-45
2022/09/18 13:39:47;;;;;;;2.10;1.30;;;;;;;;;;5053038;28;24793;-46
2022/09/18 13:42:12;;;;;;;3.00;1.40;;;;;;;;;;5057589;28;24503;-45
2022/09/18 13:44:38;;;;;;;1.40;1.30;;;;;;;;;;5060354;28;24518;-46
2022/09/18 13:47:13;;;;;;;2.40;1.40;;;;;;;;;;5051039;28;24430;-46
2022/09/18 13:49:47;;;;;;;2.33;1.20;;;;;;;;;;5041593;28;25100;-46
2022/09/18 13:52:31;;;;;;;1.90;1.10;;;;;;;;;;5036574;28;24528;-46
2022/09/18 13:55:00;;;;;;;1.65;1.00;;;;;;;;;;5049660;28;24423;-46
2022/09/18 13:57:29;;;;;;;1.30;1.07;;;;;;;;;;5046406;28;24462;-46
2022/09/18 13:59:57;;;;;;;1.30;0.90;;;;;;;;;;5037759;28;24786;-46
2022/09/18 14:02:30;;;;;;;1.40;1.02;;;;;;;;;;5045199;28;24434;-45
2022/09/18 14:04:56;;;;;;;1.95;1.20;;;;;;;;;;5047088;28;24434;-46
2022/09/18 14:07:24;;;;;;;1.10;1.00;;;;;;;;;;5031207;28;24466;-46
2022/09/18 14:09:51;;;;;;;1.30;1.10;;;;;;;;;;5037859;28;24434;-46
2022/09/18 14:12:17;;;;;;;1.80;1.10;;;;;;;;;;5047182;28;24438;-47
2022/09/18 14:14:43;;;;;;;1.00;0.90;;;;;;;;;;5042133;28;25223;-47
2022/09/18 14:17:12;;;;;;;2.00;1.40;;;;;;;;;;5030735;28;25058;-46
2022/09/18 14:19:39;;;;;;;1.58;1.20;;;;;;;;;;5026965;28;24419;-46
2022/09/18 14:22:04;;;;;;;1.52;1.35;;;;;;;;;;5039383;28;24426;-46
2022/09/18 14:24:37;;;;;;;1.90;1.30;;;;;;;;;;5043929;28;25035;-45
2022/09/18 14:27:27;;;;;;;1.20;1.10;;;;;;;;;;5038352;28;24446;-46
2022/09/18 14:29:54;;;;;;;1.80;1.30;;;;;;;;;;5026419;28;24416;-46
2022/09/18 14:32:19;;;;;;;1.52;1.17;;;;;;;;;;5026706;28;24826;-47
2022/09/18 14:34:44;;;;;;;1.80;1.10;;;;;;;;;;5026023;28;25032;-46
2022/09/18 14:37:21;;;;;;;1.33;1.23;;;;;;;;;;5028747;28;24411;-46
2022/09/18 14:39:46;;;;;;;1.70;1.17;;;;;;;;;;5044553;28;24508;-46
2022/09/18 14:42:13;;;;;;;1.50;1.10;;;;;;;;;;5043911;28;24750;-45
2022/09/18 14:44:45;;;;;;;1.30;1.20;;;;;;;;;;5043635;28;24472;-46
2022/09/18 14:47:19;;;;;;;1.20;1.10;;;;;;;;;;5046868;28;24422;-47
2022/09/18 14:49:44;;;;;;;1.48;1.33;;;;;;;;;;5040184;28;24423;-45
2022/09/18 14:52:22;;;;;;;1.30;0.90;;;;;;;;;;5045239;28;24409;-49
2022/09/18 14:54:48;;;;;;;1.20;1.10;;;;;;;;;;5045678;28;24486;-46